sensor_id;sensor_type;location;lat;lon;timestamp;P1;durP1;ratioP1;P2;durP2;ratioP2
57752;SDS011;43583;53.132;6.574;2024-03-22T00:00:30;24.33;;;14.73;;
57752;SDS011;43583;53.132;6.574;2024-03-22T00:02:58;22.80;;;13.65;;
57752;SDS011;43583;53.132;6.574;2024-03-22T00:05:24;29.05;;;15.45;;
57752;SDS011;43583;53.132;6.574;2024-03-22T00:07:50;22.20;;;13.85;;
57752;SDS011;43583;53.132;6.574;2024-03-22T00:10:15;28.95;;;15.88;;
57752;SDS011;43583;53.132;6.574;2024-03-22T00:12:41;27.75;;;15.50;;
57752;SDS011;43583;53.132;6.574;2024-03-22T00:15:07;25.90;;;15.07;;
57752;SDS011;43583;53.132;6.574;2024-03-22T00:17:33;29.33;;;16.60;;
57752;SDS011;43583;53.132;6.574;2024-03-22T00:19:59;29.10;;;15.60;;
57752;SDS011;43583;53.132;6.574;2024-03-22T00:22:25;26.30;;;15.55;;
57752;SDS011;43583;53.132;6.574;2024-03-22T00:24:51;24.52;;;14.90;;
57752;SDS011;43583;53.132;6.574;2024-03-22T00:27:16;28.02;;;15.27;;
57752;SDS011;43583;53.132;6.574;2024-03-22T00:29:42;26.60;;;16.33;;
57752;SDS011;43583;53.132;6.574;2024-03-22T00:32:08;29.98;;;16.67;;
57752;SDS011;43583;53.132;6.574;2024-03-22T00:34:34;35.03;;;17.30;;
57752;SDS011;43583;53.132;6.574;2024-03-22T00:37:00;32.15;;;18.02;;
57752;SDS011;43583;53.132;6.574;2024-03-22T00:39:25;32.30;;;17.63;;
57752;SDS011;43583;53.132;6.574;2024-03-22T00:41:51;35.47;;;18.25;;
57752;SDS011;43583;53.132;6.574;2024-03-22T00:44:17;32.83;;;18.42;;
57752;SDS011;43583;53.132;6.574;2024-03-22T00:46:42;33.67;;;18.75;;
57752;SDS011;43583;53.132;6.574;2024-03-22T00:49:08;30.88;;;19.30;;
57752;SDS011;43583;53.132;6.574;2024-03-22T00:51:34;30.48;;;18.08;;
57752;SDS011;43583;53.132;6.574;2024-03-22T00:54:00;35.65;;;18.90;;
57752;SDS011;43583;53.132;6.574;2024-03-22T00:56:25;33.85;;;18.70;;
57752;SDS011;43583;53.132;6.574;2024-03-22T00:58:51;36.65;;;18.60;;
57752;SDS011;43583;53.132;6.574;2024-03-22T01:01:17;38.30;;;20.17;;
57752;SDS011;43583;53.132;6.574;2024-03-22T01:03:42;32.33;;;17.75;;
57752;SDS011;43583;53.132;6.574;2024-03-22T01:06:08;37.53;;;18.08;;
57752;SDS011;43583;53.132;6.574;2024-03-22T01:08:34;37.47;;;19.77;;
57752;SDS011;43583;53.132;6.574;2024-03-22T01:10:59;35.78;;;19.73;;
57752;SDS011;43583;53.132;6.574;2024-03-22T01:13:26;36.72;;;19.48;;
57752;SDS011;43583;53.132;6.574;2024-03-22T01:15:51;35.45;;;19.02;;
57752;SDS011;43583;53.132;6.574;2024-03-22T01:18:17;31.35;;;17.90;;
57752;SDS011;43583;53.132;6.574;2024-03-22T01:20:43;37.05;;;19.20;;
57752;SDS011;43583;53.132;6.574;2024-03-22T01:23:09;35.15;;;19.42;;
57752;SDS011;43583;53.132;6.574;2024-03-22T01:25:35;41.70;;;22.35;;
57752;SDS011;43583;53.132;6.574;2024-03-22T01:28:00;43.55;;;21.80;;
57752;SDS011;43583;53.132;6.574;2024-03-22T01:30:26;37.15;;;20.13;;
57752;SDS011;43583;53.132;6.574;2024-03-22T01:32:55;41.92;;;21.55;;
57752;SDS011;43583;53.132;6.574;2024-03-22T01:35:21;37.35;;;19.98;;
57752;SDS011;43583;53.132;6.574;2024-03-22T01:37:47;37.50;;;19.17;;
57752;SDS011;43583;53.132;6.574;2024-03-22T01:40:13;45.22;;;21.10;;
57752;SDS011;43583;53.132;6.574;2024-03-22T01:42:38;42.53;;;22.23;;
57752;SDS011;43583;53.132;6.574;2024-03-22T01:45:04;39.47;;;20.08;;
57752;SDS011;43583;53.132;6.574;2024-03-22T01:47:31;39.92;;;21.80;;
57752;SDS011;43583;53.132;6.574;2024-03-22T01:49:57;41.30;;;21.90;;
57752;SDS011;43583;53.132;6.574;2024-03-22T01:52:23;40.95;;;22.60;;
57752;SDS011;43583;53.132;6.574;2024-03-22T01:54:49;44.30;;;22.50;;
57752;SDS011;43583;53.132;6.574;2024-03-22T01:57:15;45.33;;;21.83;;
57752;SDS011;43583;53.132;6.574;2024-03-22T01:59:41;43.38;;;20.90;;
57752;SDS011;43583;53.132;6.574;2024-03-22T02:02:07;42.85;;;23.00;;
57752;SDS011;43583;53.132;6.574;2024-03-22T02:04:32;44.60;;;22.90;;
57752;SDS011;43583;53.132;6.574;2024-03-22T02:06:58;41.13;;;22.17;;
57752;SDS011;43583;53.132;6.574;2024-03-22T02:09:24;46.75;;;22.52;;
57752;SDS011;43583;53.132;6.574;2024-03-22T02:11:50;44.97;;;22.45;;
57752;SDS011;43583;53.132;6.574;2024-03-22T02:14:16;42.78;;;22.75;;
57752;SDS011;43583;53.132;6.574;2024-03-22T02:16:42;42.40;;;22.27;;
57752;SDS011;43583;53.132;6.574;2024-03-22T02:19:08;49.28;;;22.60;;
57752;SDS011;43583;53.132;6.574;2024-03-22T02:21:34;45.47;;;24.25;;
57752;SDS011;43583;53.132;6.574;2024-03-22T02:24:00;49.38;;;23.38;;
57752;SDS011;43583;53.132;6.574;2024-03-22T02:26:25;46.75;;;23.23;;
57752;SDS011;43583;53.132;6.574;2024-03-22T02:28:51;49.42;;;24.00;;
57752;SDS011;43583;53.132;6.574;2024-03-22T02:31:17;48.05;;;23.92;;
57752;SDS011;43583;53.132;6.574;2024-03-22T02:33:43;45.90;;;23.77;;
57752;SDS011;43583;53.132;6.574;2024-03-22T02:36:09;48.72;;;23.90;;
57752;SDS011;43583;53.132;6.574;2024-03-22T02:38:34;48.22;;;22.95;;
57752;SDS011;43583;53.132;6.574;2024-03-22T02:41:00;47.90;;;23.40;;
57752;SDS011;43583;53.132;6.574;2024-03-22T02:43:26;51.15;;;25.13;;
57752;SDS011;43583;53.132;6.574;2024-03-22T02:45:51;48.85;;;24.20;;
57752;SDS011;43583;53.132;6.574;2024-03-22T02:48:17;47.10;;;24.17;;
57752;SDS011;43583;53.132;6.574;2024-03-22T02:50:43;52.08;;;25.75;;
57752;SDS011;43583;53.132;6.574;2024-03-22T02:53:08;54.15;;;25.60;;
57752;SDS011;43583;53.132;6.574;2024-03-22T02:55:38;54.38;;;25.20;;
57752;SDS011;43583;53.132;6.574;2024-03-22T02:58:04;54.53;;;26.15;;
57752;SDS011;43583;53.132;6.574;2024-03-22T03:00:31;51.72;;;24.35;;
57752;SDS011;43583;53.132;6.574;2024-03-22T03:03:01;51.13;;;25.23;;
57752;SDS011;43583;53.132;6.574;2024-03-22T03:05:27;54.88;;;25.58;;
57752;SDS011;43583;53.132;6.574;2024-03-22T03:07:53;52.35;;;26.70;;
57752;SDS011;43583;53.132;6.574;2024-03-22T03:10:18;55.97;;;27.17;;
57752;SDS011;43583;53.132;6.574;2024-03-22T03:12:44;56.45;;;26.27;;
57752;SDS011;43583;53.132;6.574;2024-03-22T03:15:10;62.65;;;27.35;;
57752;SDS011;43583;53.132;6.574;2024-03-22T03:17:35;51.38;;;24.73;;
57752;SDS011;43583;53.132;6.574;2024-03-22T03:20:01;54.58;;;25.77;;
57752;SDS011;43583;53.132;6.574;2024-03-22T03:22:27;55.35;;;27.17;;
57752;SDS011;43583;53.132;6.574;2024-03-22T03:24:53;54.53;;;25.55;;
57752;SDS011;43583;53.132;6.574;2024-03-22T03:27:18;63.63;;;28.92;;
57752;SDS011;43583;53.132;6.574;2024-03-22T03:29:44;59.20;;;26.35;;
57752;SDS011;43583;53.132;6.574;2024-03-22T03:32:09;58.72;;;26.20;;
57752;SDS011;43583;53.132;6.574;2024-03-22T03:34:35;58.40;;;26.52;;
57752;SDS011;43583;53.132;6.574;2024-03-22T03:37:01;60.80;;;28.00;;
57752;SDS011;43583;53.132;6.574;2024-03-22T03:39:27;58.10;;;27.67;;
57752;SDS011;43583;53.132;6.574;2024-03-22T03:41:54;56.08;;;28.02;;
57752;SDS011;43583;53.132;6.574;2024-03-22T03:44:20;60.95;;;28.00;;
57752;SDS011;43583;53.132;6.574;2024-03-22T03:46:46;60.80;;;27.02;;
57752;SDS011;43583;53.132;6.574;2024-03-22T03:49:11;59.72;;;26.75;;
57752;SDS011;43583;53.132;6.574;2024-03-22T03:51:37;56.88;;;27.25;;
57752;SDS011;43583;53.132;6.574;2024-03-22T03:54:05;66.10;;;26.80;;
57752;SDS011;43583;53.132;6.574;2024-03-22T03:56:31;57.38;;;25.85;;
57752;SDS011;43583;53.132;6.574;2024-03-22T03:58:57;63.53;;;26.98;;
57752;SDS011;43583;53.132;6.574;2024-03-22T04:01:22;60.78;;;26.38;;
57752;SDS011;43583;53.132;6.574;2024-03-22T04:03:49;63.13;;;27.23;;
57752;SDS011;43583;53.132;6.574;2024-03-22T04:06:14;63.20;;;26.33;;
57752;SDS011;43583;53.132;6.574;2024-03-22T04:08:40;69.13;;;27.83;;
57752;SDS011;43583;53.132;6.574;2024-03-22T04:11:06;61.50;;;27.02;;
57752;SDS011;43583;53.132;6.574;2024-03-22T04:13:32;57.25;;;25.73;;
57752;SDS011;43583;53.132;6.574;2024-03-22T04:15:58;59.03;;;27.70;;
57752;SDS011;43583;53.132;6.574;2024-03-22T04:18:25;63.80;;;28.15;;
57752;SDS011;43583;53.132;6.574;2024-03-22T04:20:54;55.92;;;25.17;;
57752;SDS011;43583;53.132;6.574;2024-03-22T04:23:21;58.28;;;26.35;;
57752;SDS011;43583;53.132;6.574;2024-03-22T04:26:00;62.65;;;27.33;;
57752;SDS011;43583;53.132;6.574;2024-03-22T04:28:27;60.30;;;25.50;;
57752;SDS011;43583;53.132;6.574;2024-03-22T04:31:00;54.80;;;24.45;;
57752;SDS011;43583;53.132;6.574;2024-03-22T04:33:30;56.40;;;24.10;;
57752;SDS011;43583;53.132;6.574;2024-03-22T04:35:57;54.28;;;24.35;;
57752;SDS011;43583;53.132;6.574;2024-03-22T04:38:23;63.08;;;26.02;;
57752;SDS011;43583;53.132;6.574;2024-03-22T04:40:50;56.35;;;24.15;;
57752;SDS011;43583;53.132;6.574;2024-03-22T04:43:16;60.28;;;25.25;;
57752;SDS011;43583;53.132;6.574;2024-03-22T04:45:45;54.58;;;25.02;;
57752;SDS011;43583;53.132;6.574;2024-03-22T04:48:14;61.88;;;24.02;;
57752;SDS011;43583;53.132;6.574;2024-03-22T04:50:43;52.63;;;25.05;;
57752;SDS011;43583;53.132;6.574;2024-03-22T04:53:09;54.60;;;24.15;;
57752;SDS011;43583;53.132;6.574;2024-03-22T04:55:35;53.67;;;24.75;;
57752;SDS011;43583;53.132;6.574;2024-03-22T04:58:01;54.17;;;24.17;;
57752;SDS011;43583;53.132;6.574;2024-03-22T05:00:27;48.03;;;22.52;;
57752;SDS011;43583;53.132;6.574;2024-03-22T05:02:53;53.78;;;24.15;;
57752;SDS011;43583;53.132;6.574;2024-03-22T05:05:19;53.72;;;24.33;;
57752;SDS011;43583;53.132;6.574;2024-03-22T05:07:45;48.38;;;22.10;;
57752;SDS011;43583;53.132;6.574;2024-03-22T05:10:11;55.72;;;24.60;;
57752;SDS011;43583;53.132;6.574;2024-03-22T05:12:37;57.22;;;23.55;;
57752;SDS011;43583;53.132;6.574;2024-03-22T05:15:03;49.15;;;21.73;;
57752;SDS011;43583;53.132;6.574;2024-03-22T05:17:29;52.35;;;22.27;;
57752;SDS011;43583;53.132;6.574;2024-03-22T05:19:57;53.30;;;24.00;;
57752;SDS011;43583;53.132;6.574;2024-03-22T05:22:24;53.67;;;25.50;;
57752;SDS011;43583;53.132;6.574;2024-03-22T05:24:49;54.60;;;21.52;;
57752;SDS011;43583;53.132;6.574;2024-03-22T05:27:15;54.28;;;23.05;;
57752;SDS011;43583;53.132;6.574;2024-03-22T05:29:42;44.22;;;21.25;;
57752;SDS011;43583;53.132;6.574;2024-03-22T05:32:07;53.20;;;22.08;;
57752;SDS011;43583;53.132;6.574;2024-03-22T05:34:33;47.72;;;21.90;;
57752;SDS011;43583;53.132;6.574;2024-03-22T05:37:00;44.63;;;19.95;;
57752;SDS011;43583;53.132;6.574;2024-03-22T05:39:26;42.13;;;19.50;;
57752;SDS011;43583;53.132;6.574;2024-03-22T05:41:52;44.53;;;19.15;;
57752;SDS011;43583;53.132;6.574;2024-03-22T05:44:19;52.00;;;19.10;;
57752;SDS011;43583;53.132;6.574;2024-03-22T05:46:47;39.83;;;18.52;;
57752;SDS011;43583;53.132;6.574;2024-03-22T05:49:13;41.17;;;18.00;;
57752;SDS011;43583;53.132;6.574;2024-03-22T05:51:39;39.97;;;19.10;;
57752;SDS011;43583;53.132;6.574;2024-03-22T05:54:04;43.60;;;18.40;;
57752;SDS011;43583;53.132;6.574;2024-03-22T05:56:31;37.17;;;17.70;;
57752;SDS011;43583;53.132;6.574;2024-03-22T05:58:58;44.15;;;18.55;;
57752;SDS011;43583;53.132;6.574;2024-03-22T06:01:23;36.90;;;16.88;;
57752;SDS011;43583;53.132;6.574;2024-03-22T06:03:49;35.85;;;17.10;;
57752;SDS011;43583;53.132;6.574;2024-03-22T06:06:15;39.22;;;17.45;;
57752;SDS011;43583;53.132;6.574;2024-03-22T06:08:41;36.78;;;16.95;;
57752;SDS011;43583;53.132;6.574;2024-03-22T06:11:08;33.65;;;15.52;;
57752;SDS011;43583;53.132;6.574;2024-03-22T06:13:34;37.55;;;16.80;;
57752;SDS011;43583;53.132;6.574;2024-03-22T06:16:01;34.78;;;15.40;;
57752;SDS011;43583;53.132;6.574;2024-03-22T06:18:28;34.60;;;17.10;;
57752;SDS011;43583;53.132;6.574;2024-03-22T06:20:54;37.40;;;16.38;;
57752;SDS011;43583;53.132;6.574;2024-03-22T06:23:20;39.03;;;17.13;;
57752;SDS011;43583;53.132;6.574;2024-03-22T06:25:53;38.55;;;16.63;;
57752;SDS011;43583;53.132;6.574;2024-03-22T06:28:19;35.22;;;15.93;;
57752;SDS011;43583;53.132;6.574;2024-03-22T06:30:45;33.03;;;16.75;;
57752;SDS011;43583;53.132;6.574;2024-03-22T06:33:12;38.38;;;16.83;;
57752;SDS011;43583;53.132;6.574;2024-03-22T06:35:38;33.28;;;16.05;;
57752;SDS011;43583;53.132;6.574;2024-03-22T06:38:05;35.97;;;17.85;;
57752;SDS011;43583;53.132;6.574;2024-03-22T06:40:31;36.53;;;16.67;;
57752;SDS011;43583;53.132;6.574;2024-03-22T06:42:57;39.25;;;16.52;;
57752;SDS011;43583;53.132;6.574;2024-03-22T06:45:23;43.15;;;16.92;;
57752;SDS011;43583;53.132;6.574;2024-03-22T06:47:49;32.05;;;15.75;;
57752;SDS011;43583;53.132;6.574;2024-03-22T06:50:15;40.78;;;16.17;;
57752;SDS011;43583;53.132;6.574;2024-03-22T06:52:42;34.30;;;15.57;;
57752;SDS011;43583;53.132;6.574;2024-03-22T06:55:09;32.58;;;14.43;;
57752;SDS011;43583;53.132;6.574;2024-03-22T06:57:34;33.83;;;14.75;;
57752;SDS011;43583;53.132;6.574;2024-03-22T07:00:00;35.75;;;16.40;;
57752;SDS011;43583;53.132;6.574;2024-03-22T07:02:26;29.50;;;13.80;;
57752;SDS011;43583;53.132;6.574;2024-03-22T07:04:51;31.70;;;15.50;;
57752;SDS011;43583;53.132;6.574;2024-03-22T07:07:17;30.67;;;15.13;;
57752;SDS011;43583;53.132;6.574;2024-03-22T07:09:43;32.67;;;14.27;;
57752;SDS011;43583;53.132;6.574;2024-03-22T07:12:09;30.88;;;13.85;;
57752;SDS011;43583;53.132;6.574;2024-03-22T07:14:35;32.25;;;13.73;;
57752;SDS011;43583;53.132;6.574;2024-03-22T07:17:00;24.27;;;12.13;;
57752;SDS011;43583;53.132;6.574;2024-03-22T07:19:26;22.02;;;11.45;;
57752;SDS011;43583;53.132;6.574;2024-03-22T07:21:53;21.83;;;11.32;;
57752;SDS011;43583;53.132;6.574;2024-03-22T07:24:19;28.02;;;11.55;;
57752;SDS011;43583;53.132;6.574;2024-03-22T07:26:48;36.38;;;12.10;;
57752;SDS011;43583;53.132;6.574;2024-03-22T07:29:14;33.03;;;11.32;;
57752;SDS011;43583;53.132;6.574;2024-03-22T07:31:40;28.00;;;12.35;;
57752;SDS011;43583;53.132;6.574;2024-03-22T07:34:06;28.98;;;11.32;;
57752;SDS011;43583;53.132;6.574;2024-03-22T07:36:32;25.95;;;10.20;;
57752;SDS011;43583;53.132;6.574;2024-03-22T07:39:02;26.60;;;11.25;;
57752;SDS011;43583;53.132;6.574;2024-03-22T07:41:31;19.40;;;10.23;;
57752;SDS011;43583;53.132;6.574;2024-03-22T07:43:57;22.05;;;9.73;;
57752;SDS011;43583;53.132;6.574;2024-03-22T07:46:25;21.33;;;9.20;;
57752;SDS011;43583;53.132;6.574;2024-03-22T07:48:51;28.20;;;10.43;;
57752;SDS011;43583;53.132;6.574;2024-03-22T07:51:16;28.88;;;10.93;;
57752;SDS011;43583;53.132;6.574;2024-03-22T07:53:42;22.63;;;9.55;;
57752;SDS011;43583;53.132;6.574;2024-03-22T07:56:08;21.73;;;10.25;;
57752;SDS011;43583;53.132;6.574;2024-03-22T07:58:33;28.33;;;9.48;;
57752;SDS011;43583;53.132;6.574;2024-03-22T08:00:59;23.35;;;10.73;;
57752;SDS011;43583;53.132;6.574;2024-03-22T08:03:25;21.05;;;10.55;;
57752;SDS011;43583;53.132;6.574;2024-03-22T08:05:50;21.63;;;9.75;;
57752;SDS011;43583;53.132;6.574;2024-03-22T08:08:16;21.52;;;9.68;;
57752;SDS011;43583;53.132;6.574;2024-03-22T08:10:42;24.02;;;9.60;;
57752;SDS011;43583;53.132;6.574;2024-03-22T08:13:08;24.20;;;9.27;;
57752;SDS011;43583;53.132;6.574;2024-03-22T08:15:34;25.90;;;10.20;;
57752;SDS011;43583;53.132;6.574;2024-03-22T08:18:00;22.83;;;10.00;;
57752;SDS011;43583;53.132;6.574;2024-03-22T08:20:26;22.75;;;10.15;;
57752;SDS011;43583;53.132;6.574;2024-03-22T08:22:52;25.48;;;10.95;;
57752;SDS011;43583;53.132;6.574;2024-03-22T08:25:17;23.17;;;9.82;;
57752;SDS011;43583;53.132;6.574;2024-03-22T08:27:45;24.05;;;10.35;;
57752;SDS011;43583;53.132;6.574;2024-03-22T08:30:12;25.98;;;10.35;;
57752;SDS011;43583;53.132;6.574;2024-03-22T08:32:38;21.35;;;9.63;;
57752;SDS011;43583;53.132;6.574;2024-03-22T08:35:03;21.20;;;8.65;;
57752;SDS011;43583;53.132;6.574;2024-03-22T08:37:30;21.13;;;8.68;;
57752;SDS011;43583;53.132;6.574;2024-03-22T08:39:56;18.92;;;8.80;;
57752;SDS011;43583;53.132;6.574;2024-03-22T08:42:21;22.35;;;7.63;;
57752;SDS011;43583;53.132;6.574;2024-03-22T08:44:47;16.27;;;7.90;;
57752;SDS011;43583;53.132;6.574;2024-03-22T08:47:12;16.55;;;7.03;;
57752;SDS011;43583;53.132;6.574;2024-03-22T08:49:38;15.45;;;7.20;;
57752;SDS011;43583;53.132;6.574;2024-03-22T08:52:06;13.32;;;6.47;;
57752;SDS011;43583;53.132;6.574;2024-03-22T08:54:32;12.15;;;6.55;;
57752;SDS011;43583;53.132;6.574;2024-03-22T08:56:57;11.48;;;5.53;;
57752;SDS011;43583;53.132;6.574;2024-03-22T08:59:23;10.77;;;5.20;;
57752;SDS011;43583;53.132;6.574;2024-03-22T09:01:49;6.40;;;4.18;;
57752;SDS011;43583;53.132;6.574;2024-03-22T09:04:15;9.27;;;4.35;;
57752;SDS011;43583;53.132;6.574;2024-03-22T09:06:41;7.97;;;4.00;;
57752;SDS011;43583;53.132;6.574;2024-03-22T09:09:06;11.30;;;5.13;;
57752;SDS011;43583;53.132;6.574;2024-03-22T09:11:33;10.35;;;4.78;;
57752;SDS011;43583;53.132;6.574;2024-03-22T09:13:58;8.18;;;3.80;;
57752;SDS011;43583;53.132;6.574;2024-03-22T09:16:24;7.97;;;3.80;;
57752;SDS011;43583;53.132;6.574;2024-03-22T09:18:50;10.82;;;3.85;;
57752;SDS011;43583;53.132;6.574;2024-03-22T09:21:16;6.32;;;3.22;;
57752;SDS011;43583;53.132;6.574;2024-03-22T09:23:41;6.35;;;3.50;;
57752;SDS011;43583;53.132;6.574;2024-03-22T09:26:07;8.25;;;3.67;;
57752;SDS011;43583;53.132;6.574;2024-03-22T09:28:33;8.75;;;3.42;;
57752;SDS011;43583;53.132;6.574;2024-03-22T09:31:03;7.15;;;3.75;;
57752;SDS011;43583;53.132;6.574;2024-03-22T09:33:34;5.72;;;3.13;;
57752;SDS011;43583;53.132;6.574;2024-03-22T09:36:00;7.05;;;3.22;;
57752;SDS011;43583;53.132;6.574;2024-03-22T09:38:27;5.88;;;3.30;;
57752;SDS011;43583;53.132;6.574;2024-03-22T09:40:53;5.93;;;3.33;;
57752;SDS011;43583;53.132;6.574;2024-03-22T09:43:22;8.88;;;2.88;;
57752;SDS011;43583;53.132;6.574;2024-03-22T09:45:51;7.57;;;2.83;;
57752;SDS011;43583;53.132;6.574;2024-03-22T09:48:18;7.82;;;3.67;;
57752;SDS011;43583;53.132;6.574;2024-03-22T09:50:46;5.18;;;3.25;;
57752;SDS011;43583;53.132;6.574;2024-03-22T09:53:17;8.75;;;3.90;;
57752;SDS011;43583;53.132;6.574;2024-03-22T09:55:45;7.72;;;3.38;;
57752;SDS011;43583;53.132;6.574;2024-03-22T09:58:12;7.38;;;3.05;;
57752;SDS011;43583;53.132;6.574;2024-03-22T10:00:38;7.60;;;3.80;;
57752;SDS011;43583;53.132;6.574;2024-03-22T10:03:03;5.68;;;2.90;;
57752;SDS011;43583;53.132;6.574;2024-03-22T10:05:30;6.50;;;2.95;;
57752;SDS011;43583;53.132;6.574;2024-03-22T10:07:56;5.13;;;3.30;;
57752;SDS011;43583;53.132;6.574;2024-03-22T10:10:22;6.15;;;2.72;;
57752;SDS011;43583;53.132;6.574;2024-03-22T10:12:48;6.95;;;2.60;;
57752;SDS011;43583;53.132;6.574;2024-03-22T10:15:13;5.88;;;3.28;;
57752;SDS011;43583;53.132;6.574;2024-03-22T10:17:40;4.82;;;2.63;;
57752;SDS011;43583;53.132;6.574;2024-03-22T10:20:06;6.25;;;2.80;;
57752;SDS011;43583;53.132;6.574;2024-03-22T10:22:48;7.47;;;3.00;;
57752;SDS011;43583;53.132;6.574;2024-03-22T10:25:19;6.78;;;2.72;;
57752;SDS011;43583;53.132;6.574;2024-03-22T10:27:45;6.43;;;2.58;;
57752;SDS011;43583;53.132;6.574;2024-03-22T10:30:11;8.35;;;3.03;;
57752;SDS011;43583;53.132;6.574;2024-03-22T10:32:40;4.38;;;2.45;;
57752;SDS011;43583;53.132;6.574;2024-03-22T10:35:06;7.32;;;1.75;;
57752;SDS011;43583;53.132;6.574;2024-03-22T10:37:33;4.13;;;2.08;;
57752;SDS011;43583;53.132;6.574;2024-03-22T10:40:02;4.03;;;2.00;;
57752;SDS011;43583;53.132;6.574;2024-03-22T10:42:39;4.90;;;2.30;;
57752;SDS011;43583;53.132;6.574;2024-03-22T10:45:06;3.85;;;1.67;;
57752;SDS011;43583;53.132;6.574;2024-03-22T10:47:34;4.90;;;1.83;;
57752;SDS011;43583;53.132;6.574;2024-03-22T10:50:04;2.47;;;1.60;;
57752;SDS011;43583;53.132;6.574;2024-03-22T10:52:42;4.30;;;1.25;;
57752;SDS011;43583;53.132;6.574;2024-03-22T10:55:19;1.70;;;1.00;;
57752;SDS011;43583;53.132;6.574;2024-03-22T10:57:53;2.38;;;1.00;;
57752;SDS011;43583;53.132;6.574;2024-03-22T11:00:27;3.70;;;1.45;;
57752;SDS011;43583;53.132;6.574;2024-03-22T11:02:56;2.67;;;0.80;;
57752;SDS011;43583;53.132;6.574;2024-03-22T11:05:22;2.70;;;1.08;;
57752;SDS011;43583;53.132;6.574;2024-03-22T11:07:47;2.20;;;0.98;;
57752;SDS011;43583;53.132;6.574;2024-03-22T11:10:25;1.50;;;0.60;;
57752;SDS011;43583;53.132;6.574;2024-03-22T11:12:55;1.58;;;0.70;;
57752;SDS011;43583;53.132;6.574;2024-03-22T11:15:21;1.35;;;0.68;;
57752;SDS011;43583;53.132;6.574;2024-03-22T11:17:47;1.15;;;0.43;;
57752;SDS011;43583;53.132;6.574;2024-03-22T11:20:14;3.08;;;0.65;;
57752;SDS011;43583;53.132;6.574;2024-03-22T11:22:40;0.75;;;0.35;;
57752;SDS011;43583;53.132;6.574;2024-03-22T11:25:06;2.03;;;0.47;;
57752;SDS011;43583;53.132;6.574;2024-03-22T11:27:32;1.58;;;0.60;;
57752;SDS011;43583;53.132;6.574;2024-03-22T11:29:58;2.25;;;0.52;;
57752;SDS011;43583;53.132;6.574;2024-03-22T11:32:23;1.65;;;0.40;;
57752;SDS011;43583;53.132;6.574;2024-03-22T11:34:49;1.75;;;0.50;;
57752;SDS011;43583;53.132;6.574;2024-03-22T11:37:15;1.10;;;0.30;;
57752;SDS011;43583;53.132;6.574;2024-03-22T11:39:41;0.90;;;0.20;;
57752;SDS011;43583;53.132;6.574;2024-03-22T11:42:06;1.02;;;0.50;;
57752;SDS011;43583;53.132;6.574;2024-03-22T11:44:35;2.20;;;0.30;;
57752;SDS011;43583;53.132;6.574;2024-03-22T11:47:02;2.78;;;0.52;;
57752;SDS011;43583;53.132;6.574;2024-03-22T11:49:29;0.93;;;0.30;;
57752;SDS011;43583;53.132;6.574;2024-03-22T11:51:55;0.90;;;0.10;;
57752;SDS011;43583;53.132;6.574;2024-03-22T11:54:22;2.00;;;0.20;;
57752;SDS011;43583;53.132;6.574;2024-03-22T11:56:48;2.38;;;0.40;;
57752;SDS011;43583;53.132;6.574;2024-03-22T11:59:14;1.65;;;0.20;;
57752;SDS011;43583;53.132;6.574;2024-03-22T12:01:40;0.60;;;0.30;;
57752;SDS011;43583;53.132;6.574;2024-03-22T12:04:06;1.20;;;0.50;;
57752;SDS011;43583;53.132;6.574;2024-03-22T12:06:36;2.30;;;0.68;;
57752;SDS011;43583;53.132;6.574;2024-03-22T12:09:02;1.08;;;0.20;;
57752;SDS011;43583;53.132;6.574;2024-03-22T12:11:28;5.85;;;0.60;;
57752;SDS011;43583;53.132;6.574;2024-03-22T12:13:54;1.63;;;0.40;;
57752;SDS011;43583;53.132;6.574;2024-03-22T12:16:20;1.50;;;0.50;;
57752;SDS011;43583;53.132;6.574;2024-03-22T12:18:45;3.38;;;0.30;;
57752;SDS011;43583;53.132;6.574;2024-03-22T12:21:11;3.75;;;0.82;;
57752;SDS011;43583;53.132;6.574;2024-03-22T12:23:36;2.22;;;0.55;;
57752;SDS011;43583;53.132;6.574;2024-03-22T12:26:02;3.10;;;0.60;;
57752;SDS011;43583;53.132;6.574;2024-03-22T12:28:28;2.42;;;0.52;;
57752;SDS011;43583;53.132;6.574;2024-03-22T12:30:53;2.10;;;0.75;;
57752;SDS011;43583;53.132;6.574;2024-03-22T12:33:19;1.98;;;0.75;;
57752;SDS011;43583;53.132;6.574;2024-03-22T12:35:45;3.55;;;0.60;;
57752;SDS011;43583;53.132;6.574;2024-03-22T12:38:12;5.22;;;1.02;;
57752;SDS011;43583;53.132;6.574;2024-03-22T12:40:38;3.85;;;1.58;;
57752;SDS011;43583;53.132;6.574;2024-03-22T12:43:04;5.25;;;1.20;;
57752;SDS011;43583;53.132;6.574;2024-03-22T12:45:31;1.65;;;0.73;;
57752;SDS011;43583;53.132;6.574;2024-03-22T12:47:57;1.85;;;0.60;;
57752;SDS011;43583;53.132;6.574;2024-03-22T12:50:23;3.15;;;0.90;;
57752;SDS011;43583;53.132;6.574;2024-03-22T12:52:49;5.13;;;0.90;;
57752;SDS011;43583;53.132;6.574;2024-03-22T12:55:15;2.75;;;0.80;;
57752;SDS011;43583;53.132;6.574;2024-03-22T12:57:41;4.85;;;1.17;;
57752;SDS011;43583;53.132;6.574;2024-03-22T13:00:08;2.88;;;1.40;;
57752;SDS011;43583;53.132;6.574;2024-03-22T13:02:40;2.08;;;0.60;;
57752;SDS011;43583;53.132;6.574;2024-03-22T13:05:06;6.07;;;0.80;;
57752;SDS011;43583;53.132;6.574;2024-03-22T13:07:33;5.97;;;1.23;;
57752;SDS011;43583;53.132;6.574;2024-03-22T13:09:59;3.17;;;1.13;;
57752;SDS011;43583;53.132;6.574;2024-03-22T13:12:25;5.10;;;1.10;;
57752;SDS011;43583;53.132;6.574;2024-03-22T13:14:52;4.90;;;1.30;;
57752;SDS011;43583;53.132;6.574;2024-03-22T13:17:18;5.18;;;1.08;;
57752;SDS011;43583;53.132;6.574;2024-03-22T13:19:43;6.45;;;1.38;;
57752;SDS011;43583;53.132;6.574;2024-03-22T13:22:09;5.90;;;1.67;;
57752;SDS011;43583;53.132;6.574;2024-03-22T13:24:35;4.28;;;0.95;;
57752;SDS011;43583;53.132;6.574;2024-03-22T13:27:01;5.25;;;1.27;;
57752;SDS011;43583;53.132;6.574;2024-03-22T13:29:27;6.20;;;1.05;;
57752;SDS011;43583;53.132;6.574;2024-03-22T13:31:54;5.18;;;0.95;;
57752;SDS011;43583;53.132;6.574;2024-03-22T13:34:20;11.18;;;1.67;;
57752;SDS011;43583;53.132;6.574;2024-03-22T13:36:45;7.55;;;1.35;;
57752;SDS011;43583;53.132;6.574;2024-03-22T13:39:12;3.80;;;1.02;;
57752;SDS011;43583;53.132;6.574;2024-03-22T13:41:40;7.75;;;1.33;;
57752;SDS011;43583;53.132;6.574;2024-03-22T13:44:06;11.10;;;1.58;;
57752;SDS011;43583;53.132;6.574;2024-03-22T13:46:33;8.35;;;1.83;;
57752;SDS011;43583;53.132;6.574;2024-03-22T13:49:01;5.95;;;1.38;;
57752;SDS011;43583;53.132;6.574;2024-03-22T13:51:29;7.07;;;2.22;;
57752;SDS011;43583;53.132;6.574;2024-03-22T13:53:56;7.45;;;2.65;;
57752;SDS011;43583;53.132;6.574;2024-03-22T13:56:22;7.07;;;1.60;;
57752;SDS011;43583;53.132;6.574;2024-03-22T13:58:48;11.23;;;2.28;;
57752;SDS011;43583;53.132;6.574;2024-03-22T14:01:14;10.50;;;1.85;;
57752;SDS011;43583;53.132;6.574;2024-03-22T14:03:40;8.55;;;2.05;;
57752;SDS011;43583;53.132;6.574;2024-03-22T14:06:05;9.02;;;1.27;;
57752;SDS011;43583;53.132;6.574;2024-03-22T14:08:32;11.25;;;2.33;;
57752;SDS011;43583;53.132;6.574;2024-03-22T14:10:57;14.35;;;2.35;;
57752;SDS011;43583;53.132;6.574;2024-03-22T14:13:23;8.63;;;1.90;;
57752;SDS011;43583;53.132;6.574;2024-03-22T14:15:49;5.70;;;1.27;;
57752;SDS011;43583;53.132;6.574;2024-03-22T14:18:14;5.32;;;0.60;;
57752;SDS011;43583;53.132;6.574;2024-03-22T14:20:40;8.07;;;1.20;;
57752;SDS011;43583;53.132;6.574;2024-03-22T14:23:06;8.10;;;0.85;;
57752;SDS011;43583;53.132;6.574;2024-03-22T14:25:32;6.78;;;1.00;;